createdAt,value
2018-02-07T00:01:27.367Z,59.47
2018-02-07T00:03:54.935Z,59.79
2018-02-07T00:06:22.483Z,59.38
2018-02-07T00:08:50.459Z,58.66
2018-02-07T00:11:17.994Z,58.56
2018-02-07T00:13:45.935Z,58.23
2018-02-07T00:16:13.474Z,58.27
2018-02-07T00:18:41.863Z,58.34
2018-02-07T00:21:09.447Z,58.17
2018-02-07T00:23:37.022Z,57.85
2018-02-07T00:26:04.598Z,57.57
2018-02-07T00:28:32.146Z,57.37
2018-02-07T00:30:59.694Z,57.08
2018-02-07T00:33:27.286Z,57.12
2018-02-07T00:35:54.842Z,57.04
2018-02-07T00:38:22.389Z,57.44
2018-02-07T00:40:49.973Z,57.56
2018-02-07T00:43:17.554Z,57.47
2018-02-07T00:45:45.098Z,57.48
2018-02-07T00:48:12.687Z,57.64
2018-02-07T00:50:40.243Z,58.30
2018-02-07T00:53:07.786Z,57.93
2018-02-07T00:55:35.370Z,57.71
2018-02-07T00:58:02.913Z,57.30
2018-02-07T01:00:30.472Z,57.41
2018-02-07T01:02:58.049Z,58.60
2018-02-07T01:05:25.603Z,58.68
2018-02-07T01:07:53.262Z,58.34
2018-02-07T01:10:20.801Z,58.80
2018-02-07T01:12:48.355Z,59.05
2018-02-07T01:15:15.933Z,59.43
2018-02-07T01:17:43.517Z,58.78
2018-02-07T01:20:11.063Z,58.59
2018-02-07T01:22:38.604Z,59.07
2018-02-07T01:25:06.223Z,59.70
2018-02-07T01:27:34.247Z,60.49
2018-02-07T01:30:02.100Z,60.33
2018-02-07T01:32:29.691Z,60.20
2018-02-07T01:34:57.544Z,60.08
2018-02-07T01:37:25.125Z,60.36
2018-02-07T01:39:52.675Z,59.92
2018-02-07T01:42:20.257Z,59.42
2018-02-07T01:44:47.797Z,59.24
2018-02-07T01:47:15.337Z,59.25
2018-02-07T01:49:43.137Z,59.17
2018-02-07T01:52:10.692Z,59.10
2018-02-07T01:54:38.286Z,58.63
2018-02-07T01:57:05.821Z,58.30
2018-02-07T01:59:33.923Z,58.16
2018-02-07T02:02:01.471Z,58.06
2018-02-07T02:04:29.018Z,57.98
2018-02-07T02:06:56.597Z,57.88
2018-02-07T02:09:24.178Z,57.85
2018-02-07T02:11:52.026Z,60.62
2018-02-07T02:14:19.746Z,61.30
2018-02-07T02:16:47.281Z,63.63
2018-02-07T02:19:14.868Z,65.21
2018-02-07T02:21:42.419Z,65.90
2018-02-07T02:24:10.006Z,67.81
2018-02-07T02:26:37.555Z,67.79
2018-02-07T02:29:05.147Z,66.89
2018-02-07T02:31:32.925Z,67.12
2018-02-07T02:34:00.512Z,65.55
2018-02-07T02:36:39.954Z,64.08
2018-02-07T02:39:07.546Z,65.79
2018-02-07T02:41:35.086Z,67.52
2018-02-07T02:44:02.688Z,69.01
2018-02-07T02:46:30.278Z,69.67
2018-02-07T02:48:57.822Z,67.65
2018-02-07T02:51:25.406Z,65.80
2018-02-07T02:53:53.238Z,64.63
2018-02-07T02:56:20.823Z,63.57
2018-02-07T02:58:48.407Z,62.52
2018-02-07T03:01:16.233Z,63.60
2018-02-07T03:03:43.831Z,64.83
2018-02-07T03:06:11.418Z,64.22
2018-02-07T03:08:38.953Z,63.68
2018-02-07T03:11:06.560Z,63.49
2018-02-07T03:13:34.102Z,63.22
2018-02-07T03:16:01.654Z,62.64
2018-02-07T03:18:29.242Z,62.80
2018-02-07T03:20:56.826Z,62.25
2018-02-07T03:23:24.422Z,64.16
2018-02-07T03:25:52.001Z,66.38
2018-02-07T03:28:19.547Z,66.37
2018-02-07T03:30:47.125Z,64.74
2018-02-07T03:33:14.749Z,66.42
2018-02-07T03:35:42.330Z,65.73
2018-02-07T03:38:09.865Z,64.16
2018-02-07T03:40:37.455Z,63.13
2018-02-07T03:43:04.993Z,61.99
2018-02-07T03:45:32.856Z,62.14
2018-02-07T03:48:00.459Z,61.93
2018-02-07T03:50:28.005Z,61.18
2018-02-07T03:52:55.559Z,60.66
2018-02-07T03:55:23.133Z,60.55
2018-02-07T03:57:50.743Z,60.52
2018-02-07T04:00:18.322Z,63.11
2018-02-07T04:02:45.910Z,64.51
2018-02-07T04:05:13.454Z,63.30
2018-02-07T04:07:41.068Z,62.24
2018-02-07T04:10:09.140Z,61.54
2018-02-07T04:12:36.731Z,61.14
2018-02-07T04:15:04.499Z,60.97
2018-02-07T04:17:32.262Z,60.91
2018-02-07T04:19:59.843Z,60.88
2018-02-07T04:22:27.386Z,60.89
2018-02-07T04:24:54.978Z,60.40
2018-02-07T04:27:22.521Z,60.25
2018-02-07T04:29:50.095Z,60.19
2018-02-07T04:32:18.510Z,60.60
2018-02-07T04:34:46.047Z,61.50
2018-02-07T04:37:13.628Z,63.26
2018-02-07T04:39:41.170Z,66.29
2018-02-07T04:42:08.745Z,67.46
2018-02-07T04:44:36.312Z,65.77
2018-02-07T04:47:03.899Z,64.35
2018-02-07T04:49:31.861Z,63.64
2018-02-07T04:51:59.434Z,63.06
2018-02-07T04:54:27.015Z,62.33
2018-02-07T04:56:54.590Z,61.86
2018-02-07T04:59:22.715Z,61.96
2018-02-07T05:01:50.265Z,61.46
2018-02-07T05:04:17.851Z,60.91
2018-02-07T05:06:45.396Z,60.76
2018-02-07T05:09:12.982Z,60.08
2018-02-07T05:11:40.800Z,60.03
2018-02-07T05:14:08.740Z,59.71
2018-02-07T05:16:36.278Z,59.65
2018-02-07T05:19:04.347Z,60.03
2018-02-07T05:21:31.912Z,61.70
2018-02-07T05:23:59.441Z,62.30
2018-02-07T05:26:27.026Z,62.58
2018-02-07T05:28:54.567Z,62.29
2018-02-07T05:31:22.157Z,63.74
2018-02-07T05:33:49.690Z,66.12
2018-02-07T05:36:17.229Z,68.64
2018-02-07T05:38:45.074Z,69.81
2018-02-07T05:41:12.610Z,68.84
2018-02-07T05:43:40.282Z,67.30
2018-02-07T05:46:07.962Z,67.53
2018-02-07T05:48:35.497Z,66.44
2018-02-07T05:51:03.050Z,65.67
2018-02-07T05:53:30.649Z,67.30
2018-02-07T05:55:58.250Z,69.14
2018-02-07T05:58:25.785Z,68.95
2018-02-07T06:00:53.336Z,68.56
2018-02-07T06:03:20.928Z,68.47
2018-02-07T06:05:48.485Z,67.08
2018-02-07T06:08:16.017Z,65.76
2018-02-07T06:10:43.607Z,64.62
2018-02-07T06:13:11.141Z,63.52
2018-02-07T06:15:39.508Z,62.73
2018-02-07T06:18:07.099Z,62.09
2018-02-07T06:20:34.860Z,61.61
2018-02-07T06:23:02.449Z,61.47
2018-02-07T06:25:30.793Z,60.72
2018-02-07T06:27:58.338Z,60.44
2018-02-07T06:30:25.981Z,59.92
2018-02-07T06:32:53.502Z,59.50
2018-02-07T06:35:21.233Z,59.41
2018-02-07T06:37:48.792Z,58.81
2018-02-07T06:40:16.330Z,58.31
2018-02-07T06:42:43.919Z,58.13
2018-02-07T06:45:11.522Z,57.86
2018-02-07T06:47:39.187Z,57.60
2018-02-07T06:50:06.878Z,57.34
2018-02-07T06:52:34.612Z,56.98
2018-02-07T06:55:02.473Z,56.81
2018-02-07T06:57:30.102Z,56.60
2018-02-07T06:59:58.875Z,56.76
2018-02-07T07:02:26.632Z,57.09
2018-02-07T07:04:54.216Z,56.88
2018-02-07T07:07:21.763Z,55.96
2018-02-07T07:09:49.350Z,55.69
2018-02-07T07:12:16.900Z,55.47
2018-02-07T07:14:45.146Z,55.50
2018-02-07T07:17:12.733Z,55.19
2018-02-07T07:19:40.676Z,54.87
2018-02-07T07:22:08.285Z,54.68
2018-02-07T07:24:36.133Z,54.62
2018-02-07T07:27:05.394Z,54.48
2018-02-07T07:29:33.011Z,53.92
2018-02-07T07:32:00.608Z,53.38
2018-02-07T07:34:28.673Z,53.14
2018-02-07T07:36:56.956Z,53.22
2018-02-07T07:39:24.505Z,53.46
2018-02-07T07:41:52.060Z,53.57
2018-02-07T07:44:19.646Z,53.73
2018-02-07T07:46:47.197Z,53.80
2018-02-07T07:49:16.378Z,54.04
2018-02-07T07:51:44.085Z,53.89
2018-02-07T07:54:11.678Z,53.16
2018-02-07T07:56:39.239Z,53.20
2018-02-07T07:59:06.832Z,53.26
2018-02-07T08:01:34.425Z,53.51
2018-02-07T08:04:02.084Z,53.69
2018-02-07T08:06:29.630Z,54.00
2018-02-07T08:08:57.231Z,53.94
2018-02-07T08:11:25.549Z,53.77
2018-02-07T08:13:53.396Z,53.85
2018-02-07T08:16:20.992Z,54.13
2018-02-07T08:18:48.673Z,54.22
2018-02-07T08:21:16.382Z,53.97
2018-02-07T08:23:44.392Z,53.88
2018-02-07T08:26:11.978Z,53.69
2018-02-07T08:28:41.216Z,53.59
2018-02-07T08:31:08.806Z,53.89
2018-02-07T08:33:36.480Z,54.13
2018-02-07T08:36:04.070Z,53.76
2018-02-07T08:38:31.907Z,53.85
2018-02-07T08:40:59.725Z,53.89
2018-02-07T08:43:27.314Z,53.84
2018-02-07T08:45:54.854Z,53.35
2018-02-07T08:48:22.428Z,53.36
2018-02-07T08:50:51.044Z,53.76
2018-02-07T08:53:18.647Z,54.21
2018-02-07T08:55:46.245Z,54.21
2018-02-07T08:58:14.021Z,53.64
2018-02-07T09:00:41.578Z,53.20
2018-02-07T09:03:09.164Z,53.49
2018-02-07T09:05:37.856Z,53.98
2018-02-07T09:08:05.415Z,53.67
2018-02-07T09:10:33.144Z,53.50
2018-02-07T09:13:01.524Z,53.37
2018-02-07T09:15:29.250Z,53.74
2018-02-07T09:17:57.552Z,54.21
2018-02-07T09:20:25.444Z,54.71
2018-02-07T09:22:53.044Z,54.56
2018-02-07T09:25:21.573Z,54.22
2018-02-07T09:27:49.173Z,54.16
2018-02-07T09:30:16.719Z,54.69
2018-02-07T09:32:44.626Z,54.94
2018-02-07T09:35:12.213Z,55.60
2018-02-07T09:37:40.278Z,56.84
2018-02-07T09:40:07.858Z,57.69
2018-02-07T09:42:35.454Z,57.40
2018-02-07T09:45:03.008Z,56.96
2018-02-07T09:47:31.287Z,56.16
2018-02-07T09:49:59.834Z,55.77
2018-02-07T09:52:27.588Z,55.77
2018-02-07T09:54:55.182Z,55.54
2018-02-07T09:57:22.727Z,56.07
2018-02-07T09:59:50.315Z,55.87
2018-02-07T10:02:18.851Z,55.46
2018-02-07T10:04:47.619Z,55.05
2018-02-07T10:07:15.179Z,55.00
2018-02-07T10:09:43.016Z,54.97
2018-02-07T10:12:11.327Z,54.68
2018-02-07T10:14:38.926Z,54.86
2018-02-07T10:17:06.480Z,54.94
2018-02-07T10:19:34.034Z,54.68
2018-02-07T10:22:01.624Z,54.50
2018-02-07T10:24:29.576Z,54.45
2018-02-07T10:26:57.162Z,54.37
2018-02-07T10:29:25.004Z,54.98
2018-02-07T10:31:52.549Z,55.07
2018-02-07T10:34:20.138Z,55.21
2018-02-07T10:36:47.704Z,55.67
2018-02-07T10:39:15.472Z,55.35
2018-02-07T10:41:43.054Z,55.38
2018-02-07T10:44:10.604Z,55.90
2018-02-07T10:46:38.210Z,55.86
2018-02-07T10:49:06.795Z,56.21
2018-02-07T10:51:34.439Z,56.15
2018-02-07T10:54:02.965Z,56.07
2018-02-07T10:56:30.875Z,55.88
2018-02-07T10:58:58.412Z,55.73
2018-02-07T11:01:25.986Z,55.75
2018-02-07T11:03:54.505Z,55.65
2018-02-07T11:06:22.056Z,56.13
2018-02-07T11:08:50.828Z,56.84
2018-02-07T11:11:18.439Z,56.37
2018-02-07T11:13:46.395Z,55.87
2018-02-07T11:16:14.878Z,55.49
2018-02-07T11:18:42.755Z,54.85
2018-02-07T11:21:12.630Z,54.71
2018-02-07T11:23:40.741Z,54.56
2018-02-07T11:26:08.959Z,54.76
2018-02-07T11:28:37.262Z,55.79
2018-02-07T11:31:04.865Z,55.95
2018-02-07T11:33:33.586Z,56.24
2018-02-07T11:36:01.986Z,57.14
2018-02-07T11:38:30.063Z,57.91
2018-02-07T11:40:58.038Z,58.45
2018-02-07T11:43:25.587Z,58.19
2018-02-07T11:45:53.852Z,57.70
2018-02-07T11:48:21.575Z,57.42
2018-02-07T11:50:49.126Z,57.52
2018-02-07T11:53:16.683Z,57.09
2018-02-07T11:55:44.284Z,56.72
2018-02-07T11:58:11.882Z,56.88
2018-02-07T12:00:39.475Z,57.37
2018-02-07T12:03:07.039Z,57.10
2018-02-07T12:05:35.170Z,57.06
2018-02-07T12:08:02.767Z,57.75
2018-02-07T12:10:30.375Z,57.57
2018-02-07T12:12:57.909Z,57.24
2018-02-07T12:15:25.610Z,57.12
2018-02-07T12:17:53.206Z,57.06
2018-02-07T12:20:20.827Z,57.09
2018-02-07T12:22:48.386Z,57.95
2018-02-07T12:25:15.937Z,58.52
2018-02-07T12:27:43.531Z,58.87
2018-02-07T12:30:11.339Z,58.67
2018-02-07T12:32:38.923Z,58.58
2018-02-07T12:35:06.482Z,57.80
2018-02-07T12:37:34.903Z,58.36
2018-02-07T12:40:04.138Z,58.47
2018-02-07T12:42:31.725Z,58.76
2018-02-07T12:44:59.313Z,58.64
2018-02-07T12:47:27.780Z,58.15
2018-02-07T12:49:55.379Z,58.12
2018-02-07T12:52:22.918Z,58.03
2018-02-07T12:54:50.538Z,57.89
2018-02-07T12:57:18.078Z,57.50
2018-02-07T12:59:45.683Z,57.32
2018-02-07T13:02:13.231Z,57.40
2018-02-07T13:04:40.768Z,57.17
2018-02-07T13:07:08.355Z,59.25
2018-02-07T13:09:36.186Z,60.37
2018-02-07T13:12:04.799Z,60.09
2018-02-07T13:14:32.382Z,59.36
2018-02-07T13:17:00.820Z,58.69
2018-02-07T13:19:28.386Z,58.24
2018-02-07T13:21:56.135Z,58.13
2018-02-07T13:24:23.721Z,58.31
2018-02-07T13:26:51.302Z,58.84
2018-02-07T13:29:19.286Z,58.46
2018-02-07T13:31:46.887Z,57.94
2018-02-07T13:34:14.475Z,58.05
2018-02-07T13:36:42.429Z,58.70
2018-02-07T13:39:10.016Z,59.46
2018-02-07T13:41:37.559Z,60.72
2018-02-07T13:44:05.143Z,60.36
2018-02-07T13:46:32.749Z,61.14
2018-02-07T13:49:00.461Z,62.08
2018-02-07T13:51:28.308Z,61.72
2018-02-07T13:53:55.850Z,60.85
2018-02-07T13:56:23.453Z,62.59
2018-02-07T13:58:50.987Z,64.06
2018-02-07T14:01:18.592Z,63.31
2018-02-07T14:03:46.326Z,62.14
2018-02-07T14:06:13.905Z,61.65
2018-02-07T14:08:41.446Z,60.92
2018-02-07T14:11:08.990Z,62.25
2018-02-07T14:13:36.587Z,64.22
2018-02-07T14:16:04.122Z,65.54
2018-02-07T14:18:31.674Z,65.17
2018-02-07T14:20:59.468Z,64.09
2018-02-07T14:23:27.024Z,65.67
2018-02-07T14:25:54.558Z,64.31
2018-02-07T14:28:22.236Z,62.83
2018-02-07T14:30:49.771Z,61.96
2018-02-07T14:33:17.313Z,61.80
2018-02-07T14:35:45.280Z,63.35
2018-02-07T14:38:12.817Z,65.39
2018-02-07T14:40:40.471Z,65.03
2018-02-07T14:43:08.059Z,64.33
2018-02-07T14:45:36.448Z,66.31
2018-02-07T14:48:04.035Z,67.19
2018-02-07T14:50:31.699Z,65.46
2018-02-07T14:52:59.977Z,64.22
2018-02-07T14:55:27.534Z,64.35
2018-02-07T14:57:55.326Z,65.64
2018-02-07T15:00:23.521Z,66.75
2018-02-07T15:02:51.989Z,65.05
2018-02-07T15:05:20.296Z,63.93
2018-02-07T15:07:47.889Z,62.92
2018-02-07T15:10:15.426Z,62.06
2018-02-07T15:12:42.953Z,61.26
2018-02-07T15:15:10.917Z,62.38
2018-02-07T15:17:38.477Z,62.65
2018-02-07T15:20:06.038Z,63.68
2018-02-07T15:22:33.622Z,63.00
2018-02-07T15:25:03.857Z,62.19
2018-02-07T15:27:31.429Z,61.77
2018-02-07T15:29:59.370Z,61.39
2018-02-07T15:32:27.955Z,61.16
2018-02-07T15:34:55.557Z,61.47
2018-02-07T15:37:23.101Z,62.28
2018-02-07T15:39:50.647Z,62.45
2018-02-07T15:42:18.783Z,61.96
2018-02-07T15:44:46.322Z,61.86
2018-02-07T15:47:15.190Z,61.81
2018-02-07T15:49:42.785Z,62.04
2018-02-07T15:52:10.369Z,61.81
2018-02-07T15:54:37.902Z,61.42
2018-02-07T15:57:06.872Z,61.69
2018-02-07T15:59:35.852Z,62.02
2018-02-07T16:02:04.481Z,62.22
2018-02-07T16:04:32.131Z,62.49
2018-02-07T16:07:00.029Z,64.56
2018-02-07T16:09:27.626Z,67.78
2018-02-07T16:11:55.609Z,69.55
2018-02-07T16:14:23.939Z,68.26
2018-02-07T16:16:52.370Z,66.99
2018-02-07T16:19:19.995Z,68.20
2018-02-07T16:21:48.771Z,67.42
2018-02-07T16:24:16.611Z,67.13
2018-02-07T16:26:44.195Z,67.29
2018-02-07T16:29:11.730Z,66.17
2018-02-07T16:31:39.323Z,65.53
2018-02-07T16:34:07.013Z,65.32
2018-02-07T16:36:34.592Z,64.80
2018-02-07T16:39:02.130Z,66.94
2018-02-07T16:41:30.308Z,67.69
2018-02-07T16:43:57.898Z,66.50
2018-02-07T16:46:25.452Z,66.63
2018-02-07T16:48:52.986Z,67.74
2018-02-07T16:51:20.990Z,68.22
2018-02-07T16:53:49.982Z,67.69
2018-02-07T16:56:17.845Z,66.49
2018-02-07T16:58:46.290Z,66.12
2018-02-07T17:01:14.639Z,65.26
2018-02-07T17:03:42.634Z,64.66
2018-02-07T17:06:10.723Z,64.03
2018-02-07T17:08:39.254Z,63.83
2018-02-07T17:11:07.760Z,63.97
2018-02-07T17:13:35.695Z,63.78
2018-02-07T17:16:03.279Z,63.57
2018-02-07T17:18:31.381Z,63.29
2018-02-07T17:21:00.069Z,63.07
2018-02-07T17:23:27.619Z,62.97
2018-02-07T17:25:55.357Z,62.91
2018-02-07T17:28:23.918Z,62.86
2018-02-07T17:30:51.454Z,62.75
2018-02-07T17:33:19.083Z,63.38
2018-02-07T17:35:47.260Z,63.20
2018-02-07T17:38:15.915Z,62.99
2018-02-07T17:40:43.765Z,62.85
2018-02-07T17:43:11.322Z,63.11
2018-02-07T17:45:38.926Z,63.33
2018-02-07T17:48:07.318Z,63.76
2018-02-07T17:50:34.983Z,63.78
2018-02-07T17:53:03.339Z,63.44
2018-02-07T17:55:31.949Z,63.35
2018-02-07T17:58:01.756Z,63.17
2018-02-07T18:00:30.220Z,62.98
2018-02-07T18:02:58.883Z,63.10
2018-02-07T18:05:27.655Z,63.18
2018-02-07T18:07:56.380Z,62.91
2018-02-07T18:10:23.914Z,63.19
2018-02-07T18:12:52.376Z,63.40
2018-02-07T18:15:19.951Z,63.90
2018-02-07T18:17:48.631Z,63.62
2018-02-07T18:20:16.522Z,63.65
2018-02-07T18:22:44.054Z,63.84
2018-02-07T18:25:12.192Z,63.47
2018-02-07T18:27:40.147Z,63.13
2018-02-07T18:30:07.722Z,62.80
2018-02-07T18:32:35.502Z,62.73
2018-02-07T18:35:03.326Z,63.86
2018-02-07T18:37:31.066Z,65.10
2018-02-07T18:39:58.986Z,66.13
2018-02-07T18:42:26.854Z,66.07
2018-02-07T18:44:55.454Z,65.46
2018-02-07T18:47:25.350Z,65.51
2018-02-07T18:49:52.934Z,64.90
2018-02-07T18:52:20.518Z,65.13
2018-02-07T18:54:49.262Z,65.29
2018-02-07T18:57:17.976Z,64.83
2018-02-07T18:59:45.547Z,64.83
2018-02-07T19:02:13.940Z,66.09
2018-02-07T19:04:42.017Z,65.76
2018-02-07T19:07:09.545Z,65.53
2018-02-07T19:09:37.145Z,65.44
2018-02-07T19:12:04.681Z,65.70
2018-02-07T19:14:32.219Z,65.10
2018-02-07T19:16:59.814Z,65.20
2018-02-07T19:19:27.463Z,65.41
2018-02-07T19:21:55.466Z,64.68
2018-02-07T19:24:23.842Z,65.10
2018-02-07T19:26:52.380Z,65.55
2018-02-07T19:29:20.295Z,66.11
2018-02-07T19:31:47.831Z,66.89
2018-02-07T19:34:15.753Z,65.92
2018-02-07T19:36:45.867Z,65.57
2018-02-07T19:39:15.089Z,65.58
2018-02-07T19:41:43.506Z,65.40
2018-02-07T19:44:12.825Z,65.04
2018-02-07T19:46:40.546Z,66.11
2018-02-07T19:49:08.103Z,66.56
2018-02-07T19:51:35.691Z,66.20
2018-02-07T19:54:04.675Z,65.33
2018-02-07T19:56:33.666Z,64.73
2018-02-07T19:59:01.394Z,64.25
2018-02-07T20:01:29.223Z,63.83
2018-02-07T20:03:56.814Z,63.54
2018-02-07T20:06:26.185Z,63.29
2018-02-07T20:08:53.844Z,63.08
2018-02-07T20:11:23.253Z,62.97
2018-02-07T20:13:51.612Z,65.89
2018-02-07T20:16:20.156Z,68.14
2018-02-07T20:18:49.769Z,68.20
2018-02-07T20:21:17.687Z,67.13
2018-02-07T20:23:45.655Z,66.17
2018-02-07T20:26:13.608Z,65.62
2018-02-07T20:28:42.592Z,65.54
2018-02-07T20:31:10.130Z,65.25
2018-02-07T20:33:37.912Z,66.17
2018-02-07T20:36:06.936Z,67.58
2018-02-07T20:38:34.699Z,66.88
2018-02-07T20:41:02.245Z,66.81
2018-02-07T20:43:31.035Z,66.59
2018-02-07T20:45:59.874Z,65.96
2018-02-07T20:48:28.417Z,65.95
2018-02-07T20:50:56.562Z,65.84
2018-02-07T20:53:24.953Z,65.54
2018-02-07T20:55:52.703Z,65.16
2018-02-07T20:58:20.462Z,66.08
2018-02-07T21:00:48.376Z,67.55
2018-02-07T21:03:16.407Z,67.61
2018-02-07T21:05:44.849Z,66.75
2018-02-07T21:08:12.421Z,66.64
2018-02-07T21:10:39.967Z,66.38
2018-02-07T21:13:07.557Z,65.93
2018-02-07T21:15:35.445Z,67.93
2018-02-07T21:18:02.991Z,69.77
2018-02-07T21:20:30.575Z,69.19
2018-02-07T21:22:58.230Z,69.54
2018-02-07T21:25:27.406Z,68.92
2018-02-07T21:27:55.207Z,68.12
2018-02-07T21:30:24.734Z,70.62
2018-02-07T21:32:52.322Z,71.13
2018-02-07T21:35:19.857Z,70.29
2018-02-07T21:37:47.404Z,70.71
2018-02-07T21:40:15.058Z,72.51
2018-02-07T21:42:43.682Z,73.41
2018-02-07T21:45:11.770Z,74.18
2018-02-07T21:47:39.792Z,74.38
2018-02-07T21:50:11.271Z,74.33
2018-02-07T21:52:39.366Z,75.22
2018-02-07T21:55:06.902Z,75.18
2018-02-07T21:57:34.473Z,73.59
2018-02-07T22:00:02.055Z,74.21
2018-02-07T22:02:29.611Z,74.31
2018-02-07T22:04:57.203Z,74.97
2018-02-07T22:07:24.749Z,75.42
2018-02-07T22:09:52.285Z,75.37
2018-02-07T22:12:19.872Z,75.40
2018-02-07T22:14:47.458Z,74.42
2018-02-07T22:17:15.053Z,73.20
2018-02-07T22:19:43.174Z,74.21
2018-02-07T22:22:11.569Z,74.42
2018-02-07T22:24:39.105Z,73.74
2018-02-07T22:27:06.683Z,72.82
2018-02-07T22:29:34.275Z,71.65
2018-02-07T22:32:01.862Z,71.95
2018-02-07T22:34:29.445Z,73.06
2018-02-07T22:36:57.079Z,73.28
2018-02-07T22:39:24.623Z,71.93
2018-02-07T22:41:52.162Z,72.87
2018-02-07T22:44:19.889Z,72.69
2018-02-07T22:46:47.421Z,72.30
2018-02-07T22:49:15.006Z,73.02
2018-02-07T22:51:42.560Z,74.84
2018-02-07T22:54:10.646Z,74.93
2018-02-07T22:56:38.240Z,73.29
2018-02-07T22:59:06.172Z,72.96
2018-02-07T23:01:33.759Z,74.51
2018-02-07T23:04:01.290Z,75.00
2018-02-07T23:06:28.994Z,73.72
2018-02-07T23:08:56.570Z,73.35
2018-02-07T23:11:24.110Z,73.01
2018-02-07T23:13:51.696Z,71.75
2018-02-07T23:16:19.269Z,70.93
2018-02-07T23:18:46.814Z,71.05
2018-02-07T23:21:14.385Z,71.82
2018-02-07T23:23:41.913Z,72.05
2018-02-07T23:26:09.499Z,73.50
2018-02-07T23:28:37.189Z,74.74
2018-02-07T23:31:04.742Z,73.95
2018-02-07T23:33:32.314Z,72.30
2018-02-07T23:35:59.854Z,72.23
2018-02-07T23:38:27.455Z,72.81
2018-02-07T23:40:54.993Z,71.62
2018-02-07T23:43:22.581Z,70.92
2018-02-07T23:45:50.174Z,72.81
2018-02-07T23:48:17.718Z,73.94
2018-02-07T23:50:45.247Z,72.97
2018-02-07T23:53:12.835Z,71.57
2018-02-07T23:55:40.373Z,70.93
2018-02-07T23:58:08.006Z,72.77
